Aérodrome :
LOGIN :

S'inscrire | Disclaimer

   EN    FR    IT 

 










Légende :    VFR   VFR Marginal   IFR   IFR Intensif   IFR Très Intensif
Visi : 
Plafond : 
>= 8 km
>= 3000ft
5 à 8 km
1000 à 3000 ft
1500m à 5 km
500 à 1000 ft
800 à 1500m
200 à 500 ft
< 800m
< 200 ft
Symboles :   Orages  Brouillard  Fortes neiges  Fortes précipitations  Vent > 20 kt
SIGMETs :   Divers  Orages  Givrage  Turbulence  Onde Orograph.  Cendres Volcan.







- Altitude de l'aérodrome : 112 ft
- Code IATA : SVQ


LEZL - Sevilla San Pablo

DERNIER METAR :
  • 232200Z 21006KT 170V240 CAVOK 20/14 Q1013 NOSIG

METARs EXPIRÉS :
  • 232130Z 21008KT 170V250 CAVOK 21/14 Q1013 NOSIG
  • 232100Z 22005KT 190V250 CAVOK 22/14 Q1013 NOSIG
  • 232030Z 25005KT CAVOK 22/13 Q1013 NOSIG
  • 232000Z 26007KT CAVOK 22/13 Q1013 NOSIG
  • 231930Z 29007KT CAVOK 24/11 Q1013 NOSIG

TAF TAF LEZL
Valide du 23 à 21h jusqu'au 24 à 21h UTC


232000Z 2321/2421 22006KT 9999 SCT035 TX22/2416Z TN15/2405Z
TEMPO 2401/2416 4000 SHRA SCT030TCU
PROB40
TEMPO 2401/2407 2000 TSRA SCT030CB
Pas de NOTAMs connus pour ce terrain.
1 SIGMET publié pour la FIR Madrid (LECM) :
 
Orages noyés dans la masse
LECM SIGMET 10 VALID 232100/232300 LEVA
LECM MADRID FIR/UIR EMBD TS OBS AT 2057Z WI N43 W00610 - N4250 W00250 - N4210 W00050 - N4020 W00140 - N41 W00630 - N43 W00610 TOP FL360 MOV NE 10KT NC=



MET'MAP, la Météo Aéronautique d'un coup d'oeil ! - Copyright ORBIFLY Décembre 2007 - Disclaimer

ORBIFLY MET'MAP TEAM :

Programmation & Développement : Alexandra Zaïnal
Conception & Développement : Baudouin d'Aumeries
Co-Programmation & Développement : Marc-Olivier Méhu
Soutien technique & logistique : Manuel Goepfert

Contact : metmap@orbifly.com




SOURCES & CREDITS :

   NOAA